sensor_id;sensor_type;location;lat;lon;timestamp;P1;durP1;ratioP1;P2;durP2;ratioP2
28519;SDS011;15732;48.534;20.382;2022-09-09T00:02:22;5.72;;;2.13;;
28519;SDS011;15732;48.534;20.382;2022-09-09T00:04:58;6.20;;;2.35;;
28519;SDS011;15732;48.534;20.382;2022-09-09T00:07:41;4.53;;;2.53;;
28519;SDS011;15732;48.534;20.382;2022-09-09T00:12:54;5.55;;;2.95;;
28519;SDS011;15732;48.534;20.382;2022-09-09T00:15:28;6.07;;;2.58;;
28519;SDS011;15732;48.534;20.382;2022-09-09T00:19:00;5.68;;;3.13;;
28519;SDS011;15732;48.534;20.382;2022-09-09T00:21:19;4.93;;;2.42;;
28519;SDS011;15732;48.534;20.382;2022-09-09T00:24:04;8.13;;;2.38;;
28519;SDS011;15732;48.534;20.382;2022-09-09T00:26:43;6.07;;;2.50;;
28519;SDS011;15732;48.534;20.382;2022-09-09T00:29:18;4.63;;;2.63;;
28519;SDS011;15732;48.534;20.382;2022-09-09T00:32:12;5.18;;;2.65;;
28519;SDS011;15732;48.534;20.382;2022-09-09T00:34:47;4.88;;;2.30;;
28519;SDS011;15732;48.534;20.382;2022-09-09T00:37:18;4.80;;;2.55;;
28519;SDS011;15732;48.534;20.382;2022-09-09T00:39:47;21.42;;;3.63;;
28519;SDS011;15732;48.534;20.382;2022-09-09T00:42:24;5.05;;;2.17;;
28519;SDS011;15732;48.534;20.382;2022-09-09T00:58:57;3.70;;;1.88;;
28519;SDS011;15732;48.534;20.382;2022-09-09T01:01:30;6.50;;;2.78;;
28519;SDS011;15732;48.534;20.382;2022-09-09T01:04:01;5.20;;;2.40;;
28519;SDS011;15732;48.534;20.382;2022-09-09T01:06:37;4.68;;;2.33;;
28519;SDS011;15732;48.534;20.382;2022-09-09T01:09:22;5.15;;;1.98;;
28519;SDS011;15732;48.534;20.382;2022-09-09T01:12:24;4.93;;;2.55;;
28519;SDS011;15732;48.534;20.382;2022-09-09T01:15:21;10.85;;;2.58;;
28519;SDS011;15732;48.534;20.382;2022-09-09T01:20:32;6.30;;;2.60;;
28519;SDS011;15732;48.534;20.382;2022-09-09T01:29:00;8.02;;;2.97;;
28519;SDS011;15732;48.534;20.382;2022-09-09T01:31:29;5.63;;;2.30;;
28519;SDS011;15732;48.534;20.382;2022-09-09T01:34:18;4.93;;;2.33;;
28519;SDS011;15732;48.534;20.382;2022-09-09T01:36:53;6.28;;;3.33;;
28519;SDS011;15732;48.534;20.382;2022-09-09T01:39:31;4.47;;;2.50;;
28519;SDS011;15732;48.534;20.382;2022-09-09T01:42:04;5.53;;;2.60;;
28519;SDS011;15732;48.534;20.382;2022-09-09T01:44:36;5.65;;;2.65;;
28519;SDS011;15732;48.534;20.382;2022-09-09T01:47:04;4.68;;;2.33;;
28519;SDS011;15732;48.534;20.382;2022-09-09T01:49:32;10.02;;;2.70;;
28519;SDS011;15732;48.534;20.382;2022-09-09T01:52:03;5.15;;;2.63;;
28519;SDS011;15732;48.534;20.382;2022-09-09T01:54:31;7.72;;;2.30;;
28519;SDS011;15732;48.534;20.382;2022-09-09T01:59:51;10.15;;;2.33;;
28519;SDS011;15732;48.534;20.382;2022-09-09T02:05:41;5.60;;;2.47;;
28519;SDS011;15732;48.534;20.382;2022-09-09T02:08:05;4.85;;;2.60;;
28519;SDS011;15732;48.534;20.382;2022-09-09T02:10:37;7.00;;;2.85;;
28519;SDS011;15732;48.534;20.382;2022-09-09T02:13:30;5.75;;;2.95;;
28519;SDS011;15732;48.534;20.382;2022-09-09T02:16:08;5.35;;;2.58;;
28519;SDS011;15732;48.534;20.382;2022-09-09T02:19:07;12.32;;;2.88;;
28519;SDS011;15732;48.534;20.382;2022-09-09T02:21:35;5.35;;;2.25;;
28519;SDS011;15732;48.534;20.382;2022-09-09T02:24:04;5.30;;;3.20;;
28519;SDS011;15732;48.534;20.382;2022-09-09T02:26:38;5.82;;;2.65;;
28519;SDS011;15732;48.534;20.382;2022-09-09T02:29:08;5.50;;;3.25;;
28519;SDS011;15732;48.534;20.382;2022-09-09T02:31:43;8.02;;;3.05;;
28519;SDS011;15732;48.534;20.382;2022-09-09T02:34:12;5.68;;;2.92;;
28519;SDS011;15732;48.534;20.382;2022-09-09T02:36:43;5.05;;;2.42;;
28519;SDS011;15732;48.534;20.382;2022-09-09T02:39:11;5.53;;;2.70;;
28519;SDS011;15732;48.534;20.382;2022-09-09T02:41:40;5.38;;;2.22;;
28519;SDS011;15732;48.534;20.382;2022-09-09T02:47:10;9.75;;;2.05;;
28519;SDS011;15732;48.534;20.382;2022-09-09T02:52:18;6.72;;;2.40;;
28519;SDS011;15732;48.534;20.382;2022-09-09T02:55:08;7.80;;;3.47;;
28519;SDS011;15732;48.534;20.382;2022-09-09T02:57:58;6.43;;;2.67;;
28519;SDS011;15732;48.534;20.382;2022-09-09T03:00:33;6.25;;;3.00;;
28519;SDS011;15732;48.534;20.382;2022-09-09T03:03:05;7.93;;;3.50;;
28519;SDS011;15732;48.534;20.382;2022-09-09T03:05:33;6.88;;;3.33;;
28519;SDS011;15732;48.534;20.382;2022-09-09T03:08:02;7.95;;;3.00;;
28519;SDS011;15732;48.534;20.382;2022-09-09T03:10:29;4.85;;;2.63;;
28519;SDS011;15732;48.534;20.382;2022-09-09T03:12:57;6.00;;;2.60;;
28519;SDS011;15732;48.534;20.382;2022-09-09T03:15:24;6.65;;;2.55;;
28519;SDS011;15732;48.534;20.382;2022-09-09T03:17:54;5.68;;;2.90;;
28519;SDS011;15732;48.534;20.382;2022-09-09T03:20:23;4.90;;;2.95;;
28519;SDS011;15732;48.534;20.382;2022-09-09T03:22:55;5.45;;;3.25;;
28519;SDS011;15732;48.534;20.382;2022-09-09T03:25:22;5.90;;;2.70;;
28519;SDS011;15732;48.534;20.382;2022-09-09T03:27:52;6.53;;;2.83;;
28519;SDS011;15732;48.534;20.382;2022-09-09T03:30:22;6.97;;;2.85;;
28519;SDS011;15732;48.534;20.382;2022-09-09T03:32:52;7.63;;;2.75;;
28519;SDS011;15732;48.534;20.382;2022-09-09T03:35:23;5.85;;;2.58;;
28519;SDS011;15732;48.534;20.382;2022-09-09T03:37:54;5.85;;;3.20;;
28519;SDS011;15732;48.534;20.382;2022-09-09T03:40:22;6.17;;;2.40;;
28519;SDS011;15732;48.534;20.382;2022-09-09T03:42:49;8.40;;;3.45;;
28519;SDS011;15732;48.534;20.382;2022-09-09T03:45:16;7.43;;;3.55;;
28519;SDS011;15732;48.534;20.382;2022-09-09T03:47:48;5.43;;;2.55;;
28519;SDS011;15732;48.534;20.382;2022-09-09T03:50:15;7.72;;;3.20;;
28519;SDS011;15732;48.534;20.382;2022-09-09T03:52:44;7.05;;;3.40;;
28519;SDS011;15732;48.534;20.382;2022-09-09T03:55:12;7.32;;;3.30;;
28519;SDS011;15732;48.534;20.382;2022-09-09T03:57:40;4.55;;;2.28;;
28519;SDS011;15732;48.534;20.382;2022-09-09T04:00:08;7.03;;;3.40;;
28519;SDS011;15732;48.534;20.382;2022-09-09T04:02:36;3.97;;;1.90;;
28519;SDS011;15732;48.534;20.382;2022-09-09T04:05:05;6.95;;;3.22;;
28519;SDS011;15732;48.534;20.382;2022-09-09T04:07:34;8.98;;;3.03;;
28519;SDS011;15732;48.534;20.382;2022-09-09T04:10:02;6.40;;;2.77;;
28519;SDS011;15732;48.534;20.382;2022-09-09T04:12:30;10.77;;;3.03;;
28519;SDS011;15732;48.534;20.382;2022-09-09T04:15:01;6.50;;;3.10;;
28519;SDS011;15732;48.534;20.382;2022-09-09T04:17:29;5.95;;;2.58;;
28519;SDS011;15732;48.534;20.382;2022-09-09T04:19:57;5.40;;;2.70;;
28519;SDS011;15732;48.534;20.382;2022-09-09T04:22:24;7.05;;;3.63;;
28519;SDS011;15732;48.534;20.382;2022-09-09T04:24:52;6.67;;;2.80;;
28519;SDS011;15732;48.534;20.382;2022-09-09T04:27:19;8.67;;;3.17;;
28519;SDS011;15732;48.534;20.382;2022-09-09T04:29:47;8.67;;;3.10;;
28519;SDS011;15732;48.534;20.382;2022-09-09T04:32:14;5.40;;;2.73;;
28519;SDS011;15732;48.534;20.382;2022-09-09T04:34:42;5.88;;;3.03;;
28519;SDS011;15732;48.534;20.382;2022-09-09T04:37:10;7.97;;;3.25;;
28519;SDS011;15732;48.534;20.382;2022-09-09T04:39:39;7.45;;;2.95;;
28519;SDS011;15732;48.534;20.382;2022-09-09T04:42:07;6.13;;;3.17;;
28519;SDS011;15732;48.534;20.382;2022-09-09T04:44:34;7.83;;;3.07;;
28519;SDS011;15732;48.534;20.382;2022-09-09T04:47:02;6.85;;;3.55;;
28519;SDS011;15732;48.534;20.382;2022-09-09T04:49:30;5.53;;;2.80;;
28519;SDS011;15732;48.534;20.382;2022-09-09T04:52:02;5.95;;;3.03;;
28519;SDS011;15732;48.534;20.382;2022-09-09T04:54:29;4.68;;;2.58;;
28519;SDS011;15732;48.534;20.382;2022-09-09T04:56:56;8.95;;;3.85;;
28519;SDS011;15732;48.534;20.382;2022-09-09T04:59:24;6.30;;;3.22;;
28519;SDS011;15732;48.534;20.382;2022-09-09T05:01:52;7.10;;;3.40;;
28519;SDS011;15732;48.534;20.382;2022-09-09T05:04:23;11.52;;;4.28;;
28519;SDS011;15732;48.534;20.382;2022-09-09T05:06:51;24.27;;;3.33;;
28519;SDS011;15732;48.534;20.382;2022-09-09T05:09:18;7.45;;;3.45;;
28519;SDS011;15732;48.534;20.382;2022-09-09T05:11:49;7.20;;;3.00;;
28519;SDS011;15732;48.534;20.382;2022-09-09T05:14:17;5.93;;;2.55;;
28519;SDS011;15732;48.534;20.382;2022-09-09T05:16:44;4.95;;;2.30;;
28519;SDS011;15732;48.534;20.382;2022-09-09T05:19:13;5.85;;;2.83;;
28519;SDS011;15732;48.534;20.382;2022-09-09T05:21:40;4.77;;;2.40;;
28519;SDS011;15732;48.534;20.382;2022-09-09T05:24:07;6.72;;;3.78;;
28519;SDS011;15732;48.534;20.382;2022-09-09T05:26:39;5.00;;;2.22;;
28519;SDS011;15732;48.534;20.382;2022-09-09T05:29:07;6.07;;;3.13;;
28519;SDS011;15732;48.534;20.382;2022-09-09T05:31:34;6.17;;;2.57;;
28519;SDS011;15732;48.534;20.382;2022-09-09T05:34:05;12.10;;;2.90;;
28519;SDS011;15732;48.534;20.382;2022-09-09T05:36:33;6.67;;;2.80;;
28519;SDS011;15732;48.534;20.382;2022-09-09T05:39:00;6.37;;;3.27;;
28519;SDS011;15732;48.534;20.382;2022-09-09T05:41:29;5.32;;;2.70;;
28519;SDS011;15732;48.534;20.382;2022-09-09T05:43:57;5.80;;;2.83;;
28519;SDS011;15732;48.534;20.382;2022-09-09T05:46:27;6.50;;;2.60;;
28519;SDS011;15732;48.534;20.382;2022-09-09T05:48:58;6.43;;;2.97;;
28519;SDS011;15732;48.534;20.382;2022-09-09T05:51:27;6.68;;;3.22;;
28519;SDS011;15732;48.534;20.382;2022-09-09T05:53:56;6.03;;;3.00;;
28519;SDS011;15732;48.534;20.382;2022-09-09T05:56:29;8.20;;;3.80;;
28519;SDS011;15732;48.534;20.382;2022-09-09T05:58:58;8.15;;;3.42;;
28519;SDS011;15732;48.534;20.382;2022-09-09T06:01:30;7.45;;;3.10;;
28519;SDS011;15732;48.534;20.382;2022-09-09T06:03:59;6.75;;;3.10;;
28519;SDS011;15732;48.534;20.382;2022-09-09T06:06:27;5.63;;;2.85;;
28519;SDS011;15732;48.534;20.382;2022-09-09T06:08:57;6.25;;;3.00;;
28519;SDS011;15732;48.534;20.382;2022-09-09T06:11:26;8.98;;;4.38;;
28519;SDS011;15732;48.534;20.382;2022-09-09T06:13:57;6.07;;;2.88;;
28519;SDS011;15732;48.534;20.382;2022-09-09T06:16:25;9.43;;;3.55;;
28519;SDS011;15732;48.534;20.382;2022-09-09T06:18:54;5.78;;;3.20;;
28519;SDS011;15732;48.534;20.382;2022-09-09T06:21:23;7.63;;;3.47;;
28519;SDS011;15732;48.534;20.382;2022-09-09T06:23:51;6.38;;;2.53;;
28519;SDS011;15732;48.534;20.382;2022-09-09T06:26:31;6.40;;;3.05;;
28519;SDS011;15732;48.534;20.382;2022-09-09T06:29:00;11.27;;;3.22;;
28519;SDS011;15732;48.534;20.382;2022-09-09T06:31:30;6.15;;;2.97;;
28519;SDS011;15732;48.534;20.382;2022-09-09T06:33:59;6.45;;;2.67;;
28519;SDS011;15732;48.534;20.382;2022-09-09T06:36:28;6.20;;;3.10;;
28519;SDS011;15732;48.534;20.382;2022-09-09T06:38:57;8.77;;;3.58;;
28519;SDS011;15732;48.534;20.382;2022-09-09T06:41:25;13.48;;;3.63;;
28519;SDS011;15732;48.534;20.382;2022-09-09T06:43:58;17.85;;;3.33;;
28519;SDS011;15732;48.534;20.382;2022-09-09T06:46:30;6.82;;;3.08;;
28519;SDS011;15732;48.534;20.382;2022-09-09T06:48:59;6.63;;;3.10;;
28519;SDS011;15732;48.534;20.382;2022-09-09T06:51:27;8.93;;;3.30;;
28519;SDS011;15732;48.534;20.382;2022-09-09T06:53:56;11.43;;;3.65;;
28519;SDS011;15732;48.534;20.382;2022-09-09T06:56:39;6.95;;;3.15;;
28519;SDS011;15732;48.534;20.382;2022-09-09T06:59:09;9.05;;;3.13;;
28519;SDS011;15732;48.534;20.382;2022-09-09T07:01:38;6.97;;;3.72;;
28519;SDS011;15732;48.534;20.382;2022-09-09T07:04:07;6.38;;;2.80;;
28519;SDS011;15732;48.534;20.382;2022-09-09T07:06:36;5.78;;;2.90;;
28519;SDS011;15732;48.534;20.382;2022-09-09T07:09:08;5.80;;;2.80;;
28519;SDS011;15732;48.534;20.382;2022-09-09T07:11:38;6.68;;;3.08;;
28519;SDS011;15732;48.534;20.382;2022-09-09T07:14:09;7.93;;;3.35;;
28519;SDS011;15732;48.534;20.382;2022-09-09T07:16:40;5.25;;;3.00;;
28519;SDS011;15732;48.534;20.382;2022-09-09T07:19:08;6.72;;;3.40;;
28519;SDS011;15732;48.534;20.382;2022-09-09T07:21:39;6.32;;;2.88;;
28519;SDS011;15732;48.534;20.382;2022-09-09T07:24:11;7.20;;;3.17;;
28519;SDS011;15732;48.534;20.382;2022-09-09T07:26:38;4.17;;;2.30;;
28519;SDS011;15732;48.534;20.382;2022-09-09T07:29:09;4.97;;;1.98;;
28519;SDS011;15732;48.534;20.382;2022-09-09T07:31:39;7.75;;;3.60;;
28519;SDS011;15732;48.534;20.382;2022-09-09T07:34:07;7.00;;;3.30;;
28519;SDS011;15732;48.534;20.382;2022-09-09T07:36:39;10.50;;;2.95;;
28519;SDS011;15732;48.534;20.382;2022-09-09T07:39:11;5.57;;;2.63;;
28519;SDS011;15732;48.534;20.382;2022-09-09T07:41:46;7.55;;;3.10;;
28519;SDS011;15732;48.534;20.382;2022-09-09T07:44:14;6.65;;;3.05;;
28519;SDS011;15732;48.534;20.382;2022-09-09T07:46:50;7.30;;;3.13;;
28519;SDS011;15732;48.534;20.382;2022-09-09T07:49:18;6.68;;;3.10;;
28519;SDS011;15732;48.534;20.382;2022-09-09T07:51:45;9.02;;;3.22;;
28519;SDS011;15732;48.534;20.382;2022-09-09T07:54:15;5.43;;;2.97;;
28519;SDS011;15732;48.534;20.382;2022-09-09T07:56:46;4.93;;;2.70;;
28519;SDS011;15732;48.534;20.382;2022-09-09T07:59:16;8.40;;;3.47;;
28519;SDS011;15732;48.534;20.382;2022-09-09T08:01:47;3.80;;;2.05;;
28519;SDS011;15732;48.534;20.382;2022-09-09T08:04:17;6.15;;;2.85;;
28519;SDS011;15732;48.534;20.382;2022-09-09T08:06:46;5.97;;;3.15;;
28519;SDS011;15732;48.534;20.382;2022-09-09T08:09:21;9.38;;;3.50;;
28519;SDS011;15732;48.534;20.382;2022-09-09T08:11:52;15.02;;;3.45;;
28519;SDS011;15732;48.534;20.382;2022-09-09T08:14:22;7.47;;;3.30;;
28519;SDS011;15732;48.534;20.382;2022-09-09T08:16:50;11.07;;;3.20;;
28519;SDS011;15732;48.534;20.382;2022-09-09T08:19:19;6.07;;;2.78;;
28519;SDS011;15732;48.534;20.382;2022-09-09T08:21:47;6.87;;;3.40;;
28519;SDS011;15732;48.534;20.382;2022-09-09T08:24:15;5.97;;;2.58;;
28519;SDS011;15732;48.534;20.382;2022-09-09T08:26:44;4.88;;;2.17;;
28519;SDS011;15732;48.534;20.382;2022-09-09T08:29:13;5.95;;;3.15;;
28519;SDS011;15732;48.534;20.382;2022-09-09T08:31:47;6.85;;;2.35;;
28519;SDS011;15732;48.534;20.382;2022-09-09T08:34:20;5.93;;;2.92;;
28519;SDS011;15732;48.534;20.382;2022-09-09T08:36:48;5.60;;;2.38;;
28519;SDS011;15732;48.534;20.382;2022-09-09T08:39:20;6.28;;;2.40;;
28519;SDS011;15732;48.534;20.382;2022-09-09T08:58:30;8.10;;;3.42;;
28519;SDS011;15732;48.534;20.382;2022-09-09T09:04:12;5.57;;;2.30;;
28519;SDS011;15732;48.534;20.382;2022-09-09T09:06:56;3.70;;;1.73;;
28519;SDS011;15732;48.534;20.382;2022-09-09T09:12:35;2.58;;;1.13;;
28519;SDS011;15732;48.534;20.382;2022-09-09T09:15:25;3.70;;;1.17;;
28519;SDS011;15732;48.534;20.382;2022-09-09T09:23:24;3.58;;;1.30;;
28519;SDS011;15732;48.534;20.382;2022-09-09T09:25:58;2.85;;;0.90;;
28519;SDS011;15732;48.534;20.382;2022-09-09T09:28:31;3.10;;;1.00;;
28519;SDS011;15732;48.534;20.382;2022-09-09T09:33:52;1.55;;;0.75;;
28519;SDS011;15732;48.534;20.382;2022-09-09T09:36:24;2.70;;;1.00;;
28519;SDS011;15732;48.534;20.382;2022-09-09T09:39:48;2.92;;;1.20;;
28519;SDS011;15732;48.534;20.382;2022-09-09T09:42:11;2.85;;;1.27;;
28519;SDS011;15732;48.534;20.382;2022-09-09T09:44:40;2.47;;;1.10;;
28519;SDS011;15732;48.534;20.382;2022-09-09T09:47:11;2.15;;;0.95;;
28519;SDS011;15732;48.534;20.382;2022-09-09T09:49:56;1.40;;;0.80;;
28519;SDS011;15732;48.534;20.382;2022-09-09T09:52:26;1.45;;;0.90;;
28519;SDS011;15732;48.534;20.382;2022-09-09T09:54:58;2.20;;;0.98;;
28519;SDS011;15732;48.534;20.382;2022-09-09T09:57:29;2.25;;;0.70;;
28519;SDS011;15732;48.534;20.382;2022-09-09T10:00:31;2.30;;;0.88;;
28519;SDS011;15732;48.534;20.382;2022-09-09T10:02:50;1.58;;;0.77;;
28519;SDS011;15732;48.534;20.382;2022-09-09T10:05:29;1.92;;;0.93;;
28519;SDS011;15732;48.534;20.382;2022-09-09T10:08:11;1.75;;;0.85;;
28519;SDS011;15732;48.534;20.382;2022-09-09T10:10:49;5.75;;;1.45;;
28519;SDS011;15732;48.534;20.382;2022-09-09T10:13:25;1.98;;;1.05;;
28519;SDS011;15732;48.534;20.382;2022-09-09T10:35:08;2.10;;;0.70;;
28519;SDS011;15732;48.534;20.382;2022-09-09T10:46:06;1.95;;;0.73;;
28519;SDS011;15732;48.534;20.382;2022-09-09T10:48:53;2.38;;;0.93;;
28519;SDS011;15732;48.534;20.382;2022-09-09T10:55:00;2.08;;;0.73;;
28519;SDS011;15732;48.534;20.382;2022-09-09T10:57:36;1.27;;;0.57;;
28519;SDS011;15732;48.534;20.382;2022-09-09T11:03:21;0.93;;;0.60;;
28519;SDS011;15732;48.534;20.382;2022-09-09T11:06:06;1.40;;;0.60;;
28519;SDS011;15732;48.534;20.382;2022-09-09T11:08:43;1.65;;;0.70;;
28519;SDS011;15732;48.534;20.382;2022-09-09T11:11:19;2.28;;;0.95;;
28519;SDS011;15732;48.534;20.382;2022-09-09T11:19:44;2.45;;;1.00;;
28519;SDS011;15732;48.534;20.382;2022-09-09T11:24:55;1.27;;;0.47;;
28519;SDS011;15732;48.534;20.382;2022-09-09T11:27:50;2.05;;;1.02;;
28519;SDS011;15732;48.534;20.382;2022-09-09T11:33:24;1.30;;;0.45;;
28519;SDS011;15732;48.534;20.382;2022-09-09T11:36:19;0.68;;;0.35;;
28519;SDS011;15732;48.534;20.382;2022-09-09T11:41:51;1.17;;;0.63;;
28519;SDS011;15732;48.534;20.382;2022-09-09T11:44:24;1.88;;;0.85;;
28519;SDS011;15732;48.534;20.382;2022-09-09T11:46:55;1.92;;;0.75;;
28519;SDS011;15732;48.534;20.382;2022-09-09T11:49:27;1.50;;;0.65;;
28519;SDS011;15732;48.534;20.382;2022-09-09T11:52:11;2.33;;;1.03;;
28519;SDS011;15732;48.534;20.382;2022-09-09T11:54:48;1.42;;;0.60;;
28519;SDS011;15732;48.534;20.382;2022-09-09T11:57:34;1.52;;;0.80;;
28519;SDS011;15732;48.534;20.382;2022-09-09T12:00:05;1.33;;;0.63;;
28519;SDS011;15732;48.534;20.382;2022-09-09T12:02:33;2.22;;;0.77;;
28519;SDS011;15732;48.534;20.382;2022-09-09T12:05:08;2.70;;;0.98;;
28519;SDS011;15732;48.534;20.382;2022-09-09T12:08:07;1.70;;;0.75;;
28519;SDS011;15732;48.534;20.382;2022-09-09T12:10:40;1.35;;;0.70;;
28519;SDS011;15732;48.534;20.382;2022-09-09T12:15:49;1.88;;;0.90;;
28519;SDS011;15732;48.534;20.382;2022-09-09T12:18:42;1.85;;;0.82;;
28519;SDS011;15732;48.534;20.382;2022-09-09T12:24:48;1.83;;;0.57;;
28519;SDS011;15732;48.534;20.382;2022-09-09T12:30:15;2.05;;;0.98;;
28519;SDS011;15732;48.534;20.382;2022-09-09T12:33:10;2.00;;;0.63;;
28519;SDS011;15732;48.534;20.382;2022-09-09T12:35:42;2.05;;;1.05;;
28519;SDS011;15732;48.534;20.382;2022-09-09T12:38:13;1.60;;;0.75;;
28519;SDS011;15732;48.534;20.382;2022-09-09T12:41:05;5.93;;;0.90;;
28519;SDS011;15732;48.534;20.382;2022-09-09T12:44:05;1.65;;;0.85;;
28519;SDS011;15732;48.534;20.382;2022-09-09T12:46:36;2.03;;;0.70;;
28519;SDS011;15732;48.534;20.382;2022-09-09T12:49:41;2.33;;;1.05;;
28519;SDS011;15732;48.534;20.382;2022-09-09T12:52:35;1.27;;;0.82;;
28519;SDS011;15732;48.534;20.382;2022-09-09T12:55:23;1.08;;;0.70;;
28519;SDS011;15732;48.534;20.382;2022-09-09T12:57:58;1.48;;;0.50;;
28519;SDS011;15732;48.534;20.382;2022-09-09T13:01:06;0.95;;;0.52;;
28519;SDS011;15732;48.534;20.382;2022-09-09T13:03:44;2.25;;;1.08;;
28519;SDS011;15732;48.534;20.382;2022-09-09T13:07:04;1.92;;;0.85;;
28519;SDS011;15732;48.534;20.382;2022-09-09T13:09:42;3.95;;;1.05;;
28519;SDS011;15732;48.534;20.382;2022-09-09T13:12:14;1.38;;;0.77;;
28519;SDS011;15732;48.534;20.382;2022-09-09T13:15:24;3.22;;;0.90;;
28519;SDS011;15732;48.534;20.382;2022-09-09T13:18:11;2.20;;;1.30;;
28519;SDS011;15732;48.534;20.382;2022-09-09T13:20:59;1.67;;;0.90;;
28519;SDS011;15732;48.534;20.382;2022-09-09T13:23:30;2.27;;;0.90;;
28519;SDS011;15732;48.534;20.382;2022-09-09T13:26:24;1.95;;;0.80;;
28519;SDS011;15732;48.534;20.382;2022-09-09T13:28:53;5.32;;;1.52;;
28519;SDS011;15732;48.534;20.382;2022-09-09T13:31:28;2.88;;;0.65;;
28519;SDS011;15732;48.534;20.382;2022-09-09T13:33:57;2.05;;;0.73;;
28519;SDS011;15732;48.534;20.382;2022-09-09T13:36:32;2.75;;;1.27;;
28519;SDS011;15732;48.534;20.382;2022-09-09T13:39:02;1.83;;;0.70;;
28519;SDS011;15732;48.534;20.382;2022-09-09T13:41:34;1.48;;;0.70;;
28519;SDS011;15732;48.534;20.382;2022-09-09T13:44:33;3.20;;;0.80;;
28519;SDS011;15732;48.534;20.382;2022-09-09T13:47:06;1.27;;;0.60;;
28519;SDS011;15732;48.534;20.382;2022-09-09T13:49:39;2.42;;;1.00;;
28519;SDS011;15732;48.534;20.382;2022-09-09T13:54:40;2.65;;;0.88;;
28519;SDS011;15732;48.534;20.382;2022-09-09T13:57:14;3.90;;;1.20;;
28519;SDS011;15732;48.534;20.382;2022-09-09T13:59:44;1.55;;;0.80;;
28519;SDS011;15732;48.534;20.382;2022-09-09T14:02:12;2.53;;;0.82;;
28519;SDS011;15732;48.534;20.382;2022-09-09T14:04:40;2.13;;;0.88;;
28519;SDS011;15732;48.534;20.382;2022-09-09T14:07:14;6.20;;;0.88;;
28519;SDS011;15732;48.534;20.382;2022-09-09T14:09:42;4.05;;;1.17;;
28519;SDS011;15732;48.534;20.382;2022-09-09T14:12:18;3.42;;;1.17;;
28519;SDS011;15732;48.534;20.382;2022-09-09T14:14:45;1.45;;;0.80;;
28519;SDS011;15732;48.534;20.382;2022-09-09T14:17:16;1.92;;;0.80;;
28519;SDS011;15732;48.534;20.382;2022-09-09T14:19:43;1.70;;;0.90;;
28519;SDS011;15732;48.534;20.382;2022-09-09T14:24:38;2.13;;;0.80;;
28519;SDS011;15732;48.534;20.382;2022-09-09T14:27:06;1.85;;;0.85;;
28519;SDS011;15732;48.534;20.382;2022-09-09T14:29:34;2.58;;;0.90;;
28519;SDS011;15732;48.534;20.382;2022-09-09T14:32:02;1.88;;;1.00;;
28519;SDS011;15732;48.534;20.382;2022-09-09T14:34:29;2.00;;;0.90;;
28519;SDS011;15732;48.534;20.382;2022-09-09T14:36:58;4.68;;;0.90;;
28519;SDS011;15732;48.534;20.382;2022-09-09T14:39:25;1.30;;;0.57;;
28519;SDS011;15732;48.534;20.382;2022-09-09T14:41:53;1.97;;;0.90;;
28519;SDS011;15732;48.534;20.382;2022-09-09T14:44:21;3.95;;;1.00;;
28519;SDS011;15732;48.534;20.382;2022-09-09T14:46:48;2.10;;;0.68;;
28519;SDS011;15732;48.534;20.382;2022-09-09T14:49:20;2.70;;;1.13;;
28519;SDS011;15732;48.534;20.382;2022-09-09T14:51:47;2.78;;;1.13;;
28519;SDS011;15732;48.534;20.382;2022-09-09T14:54:18;2.60;;;0.88;;
28519;SDS011;15732;48.534;20.382;2022-09-09T14:56:48;2.20;;;1.00;;
28519;SDS011;15732;48.534;20.382;2022-09-09T14:59:16;2.13;;;0.93;;
28519;SDS011;15732;48.534;20.382;2022-09-09T15:01:43;2.25;;;1.02;;
28519;SDS011;15732;48.534;20.382;2022-09-09T15:04:11;2.70;;;0.90;;
28519;SDS011;15732;48.534;20.382;2022-09-09T15:06:58;3.00;;;1.23;;
28519;SDS011;15732;48.534;20.382;2022-09-09T15:09:30;2.83;;;1.08;;
28519;SDS011;15732;48.534;20.382;2022-09-09T15:11:57;2.33;;;1.10;;
28519;SDS011;15732;48.534;20.382;2022-09-09T15:14:24;3.72;;;1.00;;
28519;SDS011;15732;48.534;20.382;2022-09-09T15:16:52;2.58;;;1.00;;
28519;SDS011;15732;48.534;20.382;2022-09-09T15:19:19;1.93;;;0.70;;
28519;SDS011;15732;48.534;20.382;2022-09-09T15:21:47;2.00;;;0.80;;
28519;SDS011;15732;48.534;20.382;2022-09-09T15:24:14;1.52;;;0.90;;
28519;SDS011;15732;48.534;20.382;2022-09-09T15:26:42;2.35;;;0.98;;
28519;SDS011;15732;48.534;20.382;2022-09-09T15:29:09;1.65;;;0.82;;
28519;SDS011;15732;48.534;20.382;2022-09-09T15:31:37;1.50;;;0.70;;
28519;SDS011;15732;48.534;20.382;2022-09-09T15:34:05;6.55;;;0.70;;
28519;SDS011;15732;48.534;20.382;2022-09-09T15:36:36;1.88;;;0.77;;
28519;SDS011;15732;48.534;20.382;2022-09-09T15:39:08;1.77;;;0.60;;
28519;SDS011;15732;48.534;20.382;2022-09-09T15:41:38;1.52;;;0.80;;
28519;SDS011;15732;48.534;20.382;2022-09-09T15:44:06;5.22;;;1.02;;
28519;SDS011;15732;48.534;20.382;2022-09-09T15:51:38;1.85;;;0.90;;
28519;SDS011;15732;48.534;20.382;2022-09-09T15:54:11;3.90;;;0.63;;
28519;SDS011;15732;48.534;20.382;2022-09-09T15:56:45;5.20;;;1.00;;
28519;SDS011;15732;48.534;20.382;2022-09-09T15:59:14;1.48;;;0.70;;
28519;SDS011;15732;48.534;20.382;2022-09-09T16:01:42;1.08;;;0.55;;
28519;SDS011;15732;48.534;20.382;2022-09-09T16:04:14;1.73;;;0.70;;
28519;SDS011;15732;48.534;20.382;2022-09-09T16:06:47;2.00;;;0.85;;
28519;SDS011;15732;48.534;20.382;2022-09-09T16:09:14;2.15;;;0.88;;
28519;SDS011;15732;48.534;20.382;2022-09-09T16:11:41;1.85;;;0.90;;
28519;SDS011;15732;48.534;20.382;2022-09-09T16:14:08;3.00;;;1.33;;
28519;SDS011;15732;48.534;20.382;2022-09-09T16:19:07;2.65;;;0.95;;
28519;SDS011;15732;48.534;20.382;2022-09-09T16:21:38;2.45;;;0.80;;
28519;SDS011;15732;48.534;20.382;2022-09-09T16:24:08;3.03;;;0.95;;
28519;SDS011;15732;48.534;20.382;2022-09-09T16:26:37;1.05;;;0.60;;
28519;SDS011;15732;48.534;20.382;2022-09-09T16:29:11;3.03;;;0.88;;
28519;SDS011;15732;48.534;20.382;2022-09-09T16:31:40;2.80;;;1.42;;
28519;SDS011;15732;48.534;20.382;2022-09-09T16:34:08;3.10;;;1.10;;
28519;SDS011;15732;48.534;20.382;2022-09-09T16:36:36;3.22;;;1.40;;
28519;SDS011;15732;48.534;20.382;2022-09-09T16:39:10;3.78;;;1.20;;
28519;SDS011;15732;48.534;20.382;2022-09-09T16:41:39;4.13;;;0.82;;
28519;SDS011;15732;48.534;20.382;2022-09-09T16:44:07;1.92;;;0.90;;
28519;SDS011;15732;48.534;20.382;2022-09-09T16:46:40;1.73;;;0.90;;
28519;SDS011;15732;48.534;20.382;2022-09-09T16:49:09;2.58;;;1.15;;
28519;SDS011;15732;48.534;20.382;2022-09-09T16:51:38;3.72;;;0.95;;
28519;SDS011;15732;48.534;20.382;2022-09-09T16:54:08;2.15;;;0.90;;
28519;SDS011;15732;48.534;20.382;2022-09-09T16:56:42;1.58;;;0.95;;
28519;SDS011;15732;48.534;20.382;2022-09-09T16:59:15;2.95;;;1.17;;
28519;SDS011;15732;48.534;20.382;2022-09-09T17:01:45;3.65;;;1.67;;
28519;SDS011;15732;48.534;20.382;2022-09-09T17:04:14;4.82;;;1.40;;
28519;SDS011;15732;48.534;20.382;2022-09-09T17:06:49;2.15;;;1.00;;
28519;SDS011;15732;48.534;20.382;2022-09-09T17:09:18;2.78;;;1.10;;
28519;SDS011;15732;48.534;20.382;2022-09-09T17:11:45;3.53;;;1.52;;
28519;SDS011;15732;48.534;20.382;2022-09-09T17:14:19;2.67;;;1.35;;
28519;SDS011;15732;48.534;20.382;2022-09-09T17:16:47;2.80;;;1.17;;
28519;SDS011;15732;48.534;20.382;2022-09-09T17:19:14;3.05;;;0.95;;
28519;SDS011;15732;48.534;20.382;2022-09-09T17:21:41;3.10;;;0.88;;
28519;SDS011;15732;48.534;20.382;2022-09-09T17:24:08;2.97;;;1.00;;
28519;SDS011;15732;48.534;20.382;2022-09-09T17:26:40;2.28;;;1.23;;